sensor_id;sensor_type;location;lat;lon;timestamp;temperature;humidity
36424;DHT22;22458;45.328;9.514;2023-03-01T00:01:11;7.80;75.90
36424;DHT22;22458;45.328;9.514;2023-03-01T00:03:37;7.70;76.10
36424;DHT22;22458;45.328;9.514;2023-03-01T00:06:03;7.70;76.20
36424;DHT22;22458;45.328;9.514;2023-03-01T00:08:30;7.70;76.30
36424;DHT22;22458;45.328;9.514;2023-03-01T00:11:17;7.70;76.20
36424;DHT22;22458;45.328;9.514;2023-03-01T00:13:47;7.70;76.30
36424;DHT22;22458;45.328;9.514;2023-03-01T00:16:21;7.70;76.30
36424;DHT22;22458;45.328;9.514;2023-03-01T00:18:47;7.60;76.50
36424;DHT22;22458;45.328;9.514;2023-03-01T00:21:13;7.70;76.50
36424;DHT22;22458;45.328;9.514;2023-03-01T00:23:39;7.60;76.50
36424;DHT22;22458;45.328;9.514;2023-03-01T00:26:08;7.60;76.80
36424;DHT22;22458;45.328;9.514;2023-03-01T00:28:35;7.60;76.90
36424;DHT22;22458;45.328;9.514;2023-03-01T00:31:09;7.60;76.70
36424;DHT22;22458;45.328;9.514;2023-03-01T00:33:35;7.60;76.70
36424;DHT22;22458;45.328;9.514;2023-03-01T00:36:01;7.60;76.60
36424;DHT22;22458;45.328;9.514;2023-03-01T00:38:27;7.60;76.80
36424;DHT22;22458;45.328;9.514;2023-03-01T00:40:53;7.50;76.80
36424;DHT22;22458;45.328;9.514;2023-03-01T00:43:21;7.50;76.80
36424;DHT22;22458;45.328;9.514;2023-03-01T00:45:47;7.50;76.80
36424;DHT22;22458;45.328;9.514;2023-03-01T00:48:12;7.60;76.80
36424;DHT22;22458;45.328;9.514;2023-03-01T00:50:38;7.50;76.80
36424;DHT22;22458;45.328;9.514;2023-03-01T00:53:04;7.40;77.10
36424;DHT22;22458;45.328;9.514;2023-03-01T00:55:30;7.10;77.80
36424;DHT22;22458;45.328;9.514;2023-03-01T00:57:56;7.00;78.10
36424;DHT22;22458;45.328;9.514;2023-03-01T01:00:22;7.00;78.30
36424;DHT22;22458;45.328;9.514;2023-03-01T01:02:48;7.00;78.40
36424;DHT22;22458;45.328;9.514;2023-03-01T01:05:16;7.00;78.40
36424;DHT22;22458;45.328;9.514;2023-03-01T01:07:47;7.00;78.40
36424;DHT22;22458;45.328;9.514;2023-03-01T01:10:13;7.00;78.30
36424;DHT22;22458;45.328;9.514;2023-03-01T01:12:44;7.00;78.20
36424;DHT22;22458;45.328;9.514;2023-03-01T01:15:10;7.00;78.20
36424;DHT22;22458;45.328;9.514;2023-03-01T01:17:38;7.00;78.40
36424;DHT22;22458;45.328;9.514;2023-03-01T01:20:04;6.90;78.60
36424;DHT22;22458;45.328;9.514;2023-03-01T01:22:30;6.90;78.60
36424;DHT22;22458;45.328;9.514;2023-03-01T01:24:56;6.90;78.70
36424;DHT22;22458;45.328;9.514;2023-03-01T01:27:22;6.90;78.80
36424;DHT22;22458;45.328;9.514;2023-03-01T01:29:47;6.90;78.80
36424;DHT22;22458;45.328;9.514;2023-03-01T01:32:13;6.90;79.50
36424;DHT22;22458;45.328;9.514;2023-03-01T01:34:39;6.80;78.80
36424;DHT22;22458;45.328;9.514;2023-03-01T01:37:05;6.90;78.80
36424;DHT22;22458;45.328;9.514;2023-03-01T01:39:36;6.80;78.80
36424;DHT22;22458;45.328;9.514;2023-03-01T01:42:02;6.80;78.90
36424;DHT22;22458;45.328;9.514;2023-03-01T01:44:29;6.90;78.90
36424;DHT22;22458;45.328;9.514;2023-03-01T01:47:00;6.90;78.90
36424;DHT22;22458;45.328;9.514;2023-03-01T01:54:44;7.00;79.00
36424;DHT22;22458;45.328;9.514;2023-03-01T01:57:16;7.00;79.00
36424;DHT22;22458;45.328;9.514;2023-03-01T01:59:47;7.00;78.90
36424;DHT22;22458;45.328;9.514;2023-03-01T02:02:14;6.90;79.00
36424;DHT22;22458;45.328;9.514;2023-03-01T02:04:41;6.90;79.00
36424;DHT22;22458;45.328;9.514;2023-03-01T02:07:15;6.90;79.00
36424;DHT22;22458;45.328;9.514;2023-03-01T02:09:45;6.90;79.20
36424;DHT22;22458;45.328;9.514;2023-03-01T02:12:13;6.90;79.20
36424;DHT22;22458;45.328;9.514;2023-03-01T02:14:39;6.90;79.20
36424;DHT22;22458;45.328;9.514;2023-03-01T02:17:05;6.90;79.20
36424;DHT22;22458;45.328;9.514;2023-03-01T02:22:22;6.90;79.30
36424;DHT22;22458;45.328;9.514;2023-03-01T02:27:38;6.80;79.30
36424;DHT22;22458;45.328;9.514;2023-03-01T02:30:07;6.80;79.30
36424;DHT22;22458;45.328;9.514;2023-03-01T02:32:34;6.80;79.20
36424;DHT22;22458;45.328;9.514;2023-03-01T02:35:00;6.70;79.10
36424;DHT22;22458;45.328;9.514;2023-03-01T02:37:26;6.70;79.20
36424;DHT22;22458;45.328;9.514;2023-03-01T02:39:59;6.80;79.20
36424;DHT22;22458;45.328;9.514;2023-03-01T02:42:35;6.80;79.10
36424;DHT22;22458;45.328;9.514;2023-03-01T02:45:02;6.70;79.00
36424;DHT22;22458;45.328;9.514;2023-03-01T02:47:28;6.70;79.00
36424;DHT22;22458;45.328;9.514;2023-03-01T02:49:54;6.70;79.10
36424;DHT22;22458;45.328;9.514;2023-03-01T02:52:26;6.60;79.10
36424;DHT22;22458;45.328;9.514;2023-03-01T02:55:08;6.60;79.10
36424;DHT22;22458;45.328;9.514;2023-03-01T02:57:37;6.60;79.20
36424;DHT22;22458;45.328;9.514;2023-03-01T03:00:09;6.40;79.20
36424;DHT22;22458;45.328;9.514;2023-03-01T03:02:36;6.40;79.50
36424;DHT22;22458;45.328;9.514;2023-03-01T03:05:08;6.30;79.60
36424;DHT22;22458;45.328;9.514;2023-03-01T03:07:36;6.30;79.80
36424;DHT22;22458;45.328;9.514;2023-03-01T03:10:05;6.30;79.90
36424;DHT22;22458;45.328;9.514;2023-03-01T03:12:31;6.30;79.90
36424;DHT22;22458;45.328;9.514;2023-03-01T03:14:57;6.30;79.90
36424;DHT22;22458;45.328;9.514;2023-03-01T03:17:23;6.30;79.90
36424;DHT22;22458;45.328;9.514;2023-03-01T03:19:49;6.30;79.90
36424;DHT22;22458;45.328;9.514;2023-03-01T03:22:15;6.30;79.80
36424;DHT22;22458;45.328;9.514;2023-03-01T03:24:41;6.30;79.80
36424;DHT22;22458;45.328;9.514;2023-03-01T03:27:07;6.30;80.40
36424;DHT22;22458;45.328;9.514;2023-03-01T03:29:33;6.30;80.00
36424;DHT22;22458;45.328;9.514;2023-03-01T03:31:59;6.20;79.90
36424;DHT22;22458;45.328;9.514;2023-03-01T03:34:25;6.20;79.90
36424;DHT22;22458;45.328;9.514;2023-03-01T03:36:57;6.20;80.00
36424;DHT22;22458;45.328;9.514;2023-03-01T03:39:26;6.20;80.10
36424;DHT22;22458;45.328;9.514;2023-03-01T03:41:53;6.20;80.20
36424;DHT22;22458;45.328;9.514;2023-03-01T03:44:19;6.20;80.20
36424;DHT22;22458;45.328;9.514;2023-03-01T03:46:45;6.20;80.20
36424;DHT22;22458;45.328;9.514;2023-03-01T03:49:11;6.10;80.30
36424;DHT22;22458;45.328;9.514;2023-03-01T03:51:37;6.10;80.30
36424;DHT22;22458;45.328;9.514;2023-03-01T03:54:03;6.00;80.30
36424;DHT22;22458;45.328;9.514;2023-03-01T03:56:29;6.00;80.40
36424;DHT22;22458;45.328;9.514;2023-03-01T03:58:54;5.90;80.40
36424;DHT22;22458;45.328;9.514;2023-03-01T04:01:20;5.90;80.50
36424;DHT22;22458;45.328;9.514;2023-03-01T04:03:46;6.00;80.50
36424;DHT22;22458;45.328;9.514;2023-03-01T04:06:13;6.00;80.40
36424;DHT22;22458;45.328;9.514;2023-03-01T04:08:39;5.90;80.40
36424;DHT22;22458;45.328;9.514;2023-03-01T04:11:05;6.00;80.40
36424;DHT22;22458;45.328;9.514;2023-03-01T04:13:51;6.00;80.30
36424;DHT22;22458;45.328;9.514;2023-03-01T04:16:17;6.00;80.30
36424;DHT22;22458;45.328;9.514;2023-03-01T04:18:43;6.00;80.30
36424;DHT22;22458;45.328;9.514;2023-03-01T04:21:09;6.10;80.50
36424;DHT22;22458;45.328;9.514;2023-03-01T04:23:36;6.10;80.30
36424;DHT22;22458;45.328;9.514;2023-03-01T04:26:02;6.00;80.40
36424;DHT22;22458;45.328;9.514;2023-03-01T04:28:31;5.90;80.50
36424;DHT22;22458;45.328;9.514;2023-03-01T04:31:06;5.80;80.80
36424;DHT22;22458;45.328;9.514;2023-03-01T04:33:40;5.70;81.00
36424;DHT22;22458;45.328;9.514;2023-03-01T04:36:06;5.60;80.90
36424;DHT22;22458;45.328;9.514;2023-03-01T04:38:35;5.70;80.80
36424;DHT22;22458;45.328;9.514;2023-03-01T04:41:04;5.70;80.70
36424;DHT22;22458;45.328;9.514;2023-03-01T04:43:30;5.60;80.70
36424;DHT22;22458;45.328;9.514;2023-03-01T04:46:03;5.60;80.70
36424;DHT22;22458;45.328;9.514;2023-03-01T04:48:30;5.70;80.70
36424;DHT22;22458;45.328;9.514;2023-03-01T04:50:58;5.60;80.60
36424;DHT22;22458;45.328;9.514;2023-03-01T04:53:24;5.60;80.70
36424;DHT22;22458;45.328;9.514;2023-03-01T04:55:50;5.60;80.70
36424;DHT22;22458;45.328;9.514;2023-03-01T04:58:16;5.60;80.70
36424;DHT22;22458;45.328;9.514;2023-03-01T05:00:42;5.50;80.60
36424;DHT22;22458;45.328;9.514;2023-03-01T05:03:08;5.50;80.70
36424;DHT22;22458;45.328;9.514;2023-03-01T05:05:36;5.60;80.70
36424;DHT22;22458;45.328;9.514;2023-03-01T05:08:07;5.50;80.60
36424;DHT22;22458;45.328;9.514;2023-03-01T05:10:35;5.40;80.60
36424;DHT22;22458;45.328;9.514;2023-03-01T05:13:02;5.40;80.80
36424;DHT22;22458;45.328;9.514;2023-03-01T05:15:30;5.30;80.80
36424;DHT22;22458;45.328;9.514;2023-03-01T05:17:57;5.30;81.00
36424;DHT22;22458;45.328;9.514;2023-03-01T05:20:25;5.20;81.10
36424;DHT22;22458;45.328;9.514;2023-03-01T05:22:52;5.10;81.30
36424;DHT22;22458;45.328;9.514;2023-03-01T05:25:19;5.10;81.50
36424;DHT22;22458;45.328;9.514;2023-03-01T05:27:46;5.10;81.60
36424;DHT22;22458;45.328;9.514;2023-03-01T05:30:13;5.10;81.60
36424;DHT22;22458;45.328;9.514;2023-03-01T05:32:42;5.10;81.70
36424;DHT22;22458;45.328;9.514;2023-03-01T05:35:11;5.20;81.50
36424;DHT22;22458;45.328;9.514;2023-03-01T05:37:43;5.20;81.50
36424;DHT22;22458;45.328;9.514;2023-03-01T05:40:11;5.20;81.60
36424;DHT22;22458;45.328;9.514;2023-03-01T05:42:45;5.10;81.60
36424;DHT22;22458;45.328;9.514;2023-03-01T05:45:12;5.10;81.80
36424;DHT22;22458;45.328;9.514;2023-03-01T05:47:39;5.00;82.10
36424;DHT22;22458;45.328;9.514;2023-03-01T05:52:38;4.90;82.60
36424;DHT22;22458;45.328;9.514;2023-03-01T05:55:06;4.90;82.70
36424;DHT22;22458;45.328;9.514;2023-03-01T05:57:32;4.90;82.90
36424;DHT22;22458;45.328;9.514;2023-03-01T05:59:57;4.90;83.00
36424;DHT22;22458;45.328;9.514;2023-03-01T06:02:23;4.80;83.20
36424;DHT22;22458;45.328;9.514;2023-03-01T06:04:49;4.80;83.50
36424;DHT22;22458;45.328;9.514;2023-03-01T06:07:15;4.80;83.60
36424;DHT22;22458;45.328;9.514;2023-03-01T06:09:40;4.80;83.80
36424;DHT22;22458;45.328;9.514;2023-03-01T06:12:06;4.80;83.90
36424;DHT22;22458;45.328;9.514;2023-03-01T06:14:32;4.80;83.90
36424;DHT22;22458;45.328;9.514;2023-03-01T06:16:58;4.90;83.90
36424;DHT22;22458;45.328;9.514;2023-03-01T06:19:23;4.80;83.90
36424;DHT22;22458;45.328;9.514;2023-03-01T06:21:49;4.80;83.90
36424;DHT22;22458;45.328;9.514;2023-03-01T06:24:15;4.80;84.10
36424;DHT22;22458;45.328;9.514;2023-03-01T06:26:41;4.80;84.10
36424;DHT22;22458;45.328;9.514;2023-03-01T06:29:07;4.70;84.20
36424;DHT22;22458;45.328;9.514;2023-03-01T06:31:34;4.70;84.40
36424;DHT22;22458;45.328;9.514;2023-03-01T06:34:00;4.70;84.40
36424;DHT22;22458;45.328;9.514;2023-03-01T06:36:25;4.70;84.50
36424;DHT22;22458;45.328;9.514;2023-03-01T06:38:51;4.70;84.60
36424;DHT22;22458;45.328;9.514;2023-03-01T06:41:17;4.70;84.60
36424;DHT22;22458;45.328;9.514;2023-03-01T06:43:43;4.70;84.60
36424;DHT22;22458;45.328;9.514;2023-03-01T06:46:08;4.70;84.70
36424;DHT22;22458;45.328;9.514;2023-03-01T06:48:34;4.70;84.70
36424;DHT22;22458;45.328;9.514;2023-03-01T06:51:00;4.80;84.80
36424;DHT22;22458;45.328;9.514;2023-03-01T06:53:27;4.80;84.80
36424;DHT22;22458;45.328;9.514;2023-03-01T06:55:57;4.80;84.80
36424;DHT22;22458;45.328;9.514;2023-03-01T06:58:24;4.80;84.90
36424;DHT22;22458;45.328;9.514;2023-03-01T07:00:50;4.70;85.20
36424;DHT22;22458;45.328;9.514;2023-03-01T07:03:16;4.60;85.40
36424;DHT22;22458;45.328;9.514;2023-03-01T07:05:41;4.50;85.70
36424;DHT22;22458;45.328;9.514;2023-03-01T07:08:07;4.50;85.90
36424;DHT22;22458;45.328;9.514;2023-03-01T07:10:33;4.50;86.20
36424;DHT22;22458;45.328;9.514;2023-03-01T07:12:59;4.40;86.30
36424;DHT22;22458;45.328;9.514;2023-03-01T07:15:26;4.30;86.80
36424;DHT22;22458;45.328;9.514;2023-03-01T07:17:52;4.20;87.30
36424;DHT22;22458;45.328;9.514;2023-03-01T07:20:18;4.20;87.60
36424;DHT22;22458;45.328;9.514;2023-03-01T07:22:44;4.30;87.60
36424;DHT22;22458;45.328;9.514;2023-03-01T07:25:10;4.30;87.80
36424;DHT22;22458;45.328;9.514;2023-03-01T07:27:36;4.40;87.80
36424;DHT22;22458;45.328;9.514;2023-03-01T07:30:03;4.50;87.80
36424;DHT22;22458;45.328;9.514;2023-03-01T07:32:29;4.40;87.90
36424;DHT22;22458;45.328;9.514;2023-03-01T07:34:54;4.40;88.30
36424;DHT22;22458;45.328;9.514;2023-03-01T07:37:20;4.30;88.50
36424;DHT22;22458;45.328;9.514;2023-03-01T07:39:46;4.30;88.90
36424;DHT22;22458;45.328;9.514;2023-03-01T07:42:12;4.30;89.00
36424;DHT22;22458;45.328;9.514;2023-03-01T07:44:37;4.40;89.10
36424;DHT22;22458;45.328;9.514;2023-03-01T07:47:03;4.60;89.10
36424;DHT22;22458;45.328;9.514;2023-03-01T07:49:29;4.70;88.90
36424;DHT22;22458;45.328;9.514;2023-03-01T07:51:55;5.00;88.70
36424;DHT22;22458;45.328;9.514;2023-03-01T07:54:21;5.10;88.40
36424;DHT22;22458;45.328;9.514;2023-03-01T07:56:47;5.20;88.30
36424;DHT22;22458;45.328;9.514;2023-03-01T07:59:13;5.30;88.40
36424;DHT22;22458;45.328;9.514;2023-03-01T08:01:39;5.50;88.30
36424;DHT22;22458;45.328;9.514;2023-03-01T08:04:04;5.60;88.10
36424;DHT22;22458;45.328;9.514;2023-03-01T08:06:34;5.70;87.90
36424;DHT22;22458;45.328;9.514;2023-03-01T08:09:00;5.80;88.40
36424;DHT22;22458;45.328;9.514;2023-03-01T08:11:26;5.90;87.70
36424;DHT22;22458;45.328;9.514;2023-03-01T08:13:53;6.10;87.60
36424;DHT22;22458;45.328;9.514;2023-03-01T08:16:19;6.20;87.30
36424;DHT22;22458;45.328;9.514;2023-03-01T08:18:45;6.30;87.30
36424;DHT22;22458;45.328;9.514;2023-03-01T08:21:14;6.30;87.30
36424;DHT22;22458;45.328;9.514;2023-03-01T08:23:41;6.30;87.30
36424;DHT22;22458;45.328;9.514;2023-03-01T08:26:13;6.50;87.50
36424;DHT22;22458;45.328;9.514;2023-03-01T08:28:40;6.50;87.20
36424;DHT22;22458;45.328;9.514;2023-03-01T08:31:25;6.60;87.20
36424;DHT22;22458;45.328;9.514;2023-03-01T08:33:55;6.70;87.30
36424;DHT22;22458;45.328;9.514;2023-03-01T08:36:26;6.70;87.30
36424;DHT22;22458;45.328;9.514;2023-03-01T08:38:52;6.80;87.40
36424;DHT22;22458;45.328;9.514;2023-03-01T08:41:18;6.90;87.30
36424;DHT22;22458;45.328;9.514;2023-03-01T08:43:44;6.90;87.30
36424;DHT22;22458;45.328;9.514;2023-03-01T08:46:11;7.00;87.40
36424;DHT22;22458;45.328;9.514;2023-03-01T08:48:37;7.10;87.40
36424;DHT22;22458;45.328;9.514;2023-03-01T08:51:10;7.10;87.30
36424;DHT22;22458;45.328;9.514;2023-03-01T08:53:36;7.20;87.40
36424;DHT22;22458;45.328;9.514;2023-03-01T08:56:01;7.30;87.20
36424;DHT22;22458;45.328;9.514;2023-03-01T08:58:28;7.40;87.10
36424;DHT22;22458;45.328;9.514;2023-03-01T09:00:54;7.50;87.00
36424;DHT22;22458;45.328;9.514;2023-03-01T09:03:24;7.60;86.60
36424;DHT22;22458;45.328;9.514;2023-03-01T09:05:51;7.70;86.40
36424;DHT22;22458;45.328;9.514;2023-03-01T09:08:18;7.70;86.00
36424;DHT22;22458;45.328;9.514;2023-03-01T09:10:44;7.80;85.70
36424;DHT22;22458;45.328;9.514;2023-03-01T09:13:10;8.00;85.30
36424;DHT22;22458;45.328;9.514;2023-03-01T09:15:39;8.10;84.70
36424;DHT22;22458;45.328;9.514;2023-03-01T09:18:05;8.20;84.10
36424;DHT22;22458;45.328;9.514;2023-03-01T09:20:31;8.30;83.70
36424;DHT22;22458;45.328;9.514;2023-03-01T09:22:58;8.40;83.30
36424;DHT22;22458;45.328;9.514;2023-03-01T09:25:24;8.40;83.00
36424;DHT22;22458;45.328;9.514;2023-03-01T09:27:53;8.50;82.70
36424;DHT22;22458;45.328;9.514;2023-03-01T09:30:20;8.50;82.30
36424;DHT22;22458;45.328;9.514;2023-03-01T09:32:46;8.50;81.80
36424;DHT22;22458;45.328;9.514;2023-03-01T09:35:12;8.60;82.10
36424;DHT22;22458;45.328;9.514;2023-03-01T09:37:38;8.70;81.20
36424;DHT22;22458;45.328;9.514;2023-03-01T09:40:20;8.90;80.90
36424;DHT22;22458;45.328;9.514;2023-03-01T09:43:00;9.00;80.20
36424;DHT22;22458;45.328;9.514;2023-03-01T09:45:35;9.10;79.70
36424;DHT22;22458;45.328;9.514;2023-03-01T09:48:03;9.00;79.40
36424;DHT22;22458;45.328;9.514;2023-03-01T09:50:40;9.10;79.30
36424;DHT22;22458;45.328;9.514;2023-03-01T09:53:09;9.10;79.20
36424;DHT22;22458;45.328;9.514;2023-03-01T09:55:43;9.20;78.90
36424;DHT22;22458;45.328;9.514;2023-03-01T10:01:21;9.40;78.10
36424;DHT22;22458;45.328;9.514;2023-03-01T10:04:04;9.40;77.50
36424;DHT22;22458;45.328;9.514;2023-03-01T10:06:35;9.50;77.20
36424;DHT22;22458;45.328;9.514;2023-03-01T10:09:07;9.50;76.80
36424;DHT22;22458;45.328;9.514;2023-03-01T10:11:39;9.60;76.60
36424;DHT22;22458;45.328;9.514;2023-03-01T10:14:40;9.80;76.60
36424;DHT22;22458;45.328;9.514;2023-03-01T10:17:32;9.90;75.90
36424;DHT22;22458;45.328;9.514;2023-03-01T10:20:10;10.00;75.70
36424;DHT22;22458;45.328;9.514;2023-03-01T10:22:39;10.00;75.70
36424;DHT22;22458;45.328;9.514;2023-03-01T10:25:05;10.00;75.40
36424;DHT22;22458;45.328;9.514;2023-03-01T10:27:40;10.00;75.10
36424;DHT22;22458;45.328;9.514;2023-03-01T10:30:17;10.20;74.80
36424;DHT22;22458;45.328;9.514;2023-03-01T10:32:46;10.30;74.50
36424;DHT22;22458;45.328;9.514;2023-03-01T10:35:20;10.40;74.10
36424;DHT22;22458;45.328;9.514;2023-03-01T10:38:04;10.40;73.50
36424;DHT22;22458;45.328;9.514;2023-03-01T10:40:34;10.40;73.10
36424;DHT22;22458;45.328;9.514;2023-03-01T10:43:05;10.30;72.50
36424;DHT22;22458;45.328;9.514;2023-03-01T10:45:39;10.30;72.10
36424;DHT22;22458;45.328;9.514;2023-03-01T10:50:36;10.30;71.60
36424;DHT22;22458;45.328;9.514;2023-03-01T10:53:20;10.30;71.60
36424;DHT22;22458;45.328;9.514;2023-03-01T10:56:00;10.40;71.50
36424;DHT22;22458;45.328;9.514;2023-03-01T10:58:28;10.50;71.50
36424;DHT22;22458;45.328;9.514;2023-03-01T11:00:54;10.60;71.40
36424;DHT22;22458;45.328;9.514;2023-03-01T11:03:24;10.70;70.90
36424;DHT22;22458;45.328;9.514;2023-03-01T11:06:03;10.60;70.70
36424;DHT22;22458;45.328;9.514;2023-03-01T11:08:46;10.50;70.60
36424;DHT22;22458;45.328;9.514;2023-03-01T11:16:31;10.70;70.80
36424;DHT22;22458;45.328;9.514;2023-03-01T11:19:12;10.70;70.50
36424;DHT22;22458;45.328;9.514;2023-03-01T11:22:05;10.70;70.00
36424;DHT22;22458;45.328;9.514;2023-03-01T11:24:47;10.70;70.40
36424;DHT22;22458;45.328;9.514;2023-03-01T11:27:33;10.80;70.20
36424;DHT22;22458;45.328;9.514;2023-03-01T11:30:05;10.80;70.40
36424;DHT22;22458;45.328;9.514;2023-03-01T11:32:40;10.90;70.50
36424;DHT22;22458;45.328;9.514;2023-03-01T11:35:26;11.00;70.40
36424;DHT22;22458;45.328;9.514;2023-03-01T11:38:02;11.10;70.00
36424;DHT22;22458;45.328;9.514;2023-03-01T11:40:58;11.20;70.00
36424;DHT22;22458;45.328;9.514;2023-03-01T11:44:25;11.30;69.70
36424;DHT22;22458;45.328;9.514;2023-03-01T11:47:24;11.30;69.30
36424;DHT22;22458;45.328;9.514;2023-03-01T11:53:06;11.40;69.20
36424;DHT22;22458;45.328;9.514;2023-03-01T11:56:08;11.50;68.90
36424;DHT22;22458;45.328;9.514;2023-03-01T11:58:40;11.40;68.50
36424;DHT22;22458;45.328;9.514;2023-03-01T12:09:38;11.60;69.00
36424;DHT22;22458;45.328;9.514;2023-03-01T12:15:15;11.70;68.80
36424;DHT22;22458;45.328;9.514;2023-03-01T12:39:51;12.00;68.00
36424;DHT22;22458;45.328;9.514;2023-03-01T12:42:47;12.00;67.90
36424;DHT22;22458;45.328;9.514;2023-03-01T12:50:43;12.30;67.70
36424;DHT22;22458;45.328;9.514;2023-03-01T12:53:25;12.30;67.80
36424;DHT22;22458;45.328;9.514;2023-03-01T12:55:54;12.30;67.70
36424;DHT22;22458;45.328;9.514;2023-03-01T12:58:51;12.40;67.60
36424;DHT22;22458;45.328;9.514;2023-03-01T13:04:20;12.50;67.10
36424;DHT22;22458;45.328;9.514;2023-03-01T13:12:00;12.30;66.90
36424;DHT22;22458;45.328;9.514;2023-03-01T13:16:52;12.20;67.20
36424;DHT22;22458;45.328;9.514;2023-03-01T13:19:23;12.30;67.20
36424;DHT22;22458;45.328;9.514;2023-03-01T13:21:52;12.30;66.90
36424;DHT22;22458;45.328;9.514;2023-03-01T13:24:41;12.40;66.80
36424;DHT22;22458;45.328;9.514;2023-03-01T13:29:52;12.40;66.70
36424;DHT22;22458;45.328;9.514;2023-03-01T13:37:52;12.40;66.40
36424;DHT22;22458;45.328;9.514;2023-03-01T13:42:55;12.40;66.40
36424;DHT22;22458;45.328;9.514;2023-03-01T13:45:41;12.40;66.40
36424;DHT22;22458;45.328;9.514;2023-03-01T13:48:11;12.50;66.20
36424;DHT22;22458;45.328;9.514;2023-03-01T13:50:48;12.60;66.30
36424;DHT22;22458;45.328;9.514;2023-03-01T13:53:22;12.60;66.10
36424;DHT22;22458;45.328;9.514;2023-03-01T13:55:57;12.70;65.90
36424;DHT22;22458;45.328;9.514;2023-03-01T13:58:32;12.70;65.60
36424;DHT22;22458;45.328;9.514;2023-03-01T14:01:06;12.80;65.60
36424;DHT22;22458;45.328;9.514;2023-03-01T14:03:39;12.70;65.50
36424;DHT22;22458;45.328;9.514;2023-03-01T14:06:09;12.70;65.40
36424;DHT22;22458;45.328;9.514;2023-03-01T14:08:37;12.70;65.40
36424;DHT22;22458;45.328;9.514;2023-03-01T14:16:52;12.70;65.70
36424;DHT22;22458;45.328;9.514;2023-03-01T14:19:26;12.70;65.60
36424;DHT22;22458;45.328;9.514;2023-03-01T14:22:34;12.70;65.60
36424;DHT22;22458;45.328;9.514;2023-03-01T14:25:06;12.70;65.40
36424;DHT22;22458;45.328;9.514;2023-03-01T14:27:42;12.70;65.60
36424;DHT22;22458;45.328;9.514;2023-03-01T14:32:38;12.60;65.40
36424;DHT22;22458;45.328;9.514;2023-03-01T14:35:19;12.60;65.50
36424;DHT22;22458;45.328;9.514;2023-03-01T14:37:45;12.60;65.30
36424;DHT22;22458;45.328;9.514;2023-03-01T14:40:22;12.50;65.50
36424;DHT22;22458;45.328;9.514;2023-03-01T14:42:49;12.50;65.50
36424;DHT22;22458;45.328;9.514;2023-03-01T14:45:15;12.50;65.50
36424;DHT22;22458;45.328;9.514;2023-03-01T14:47:40;12.50;65.50
36424;DHT22;22458;45.328;9.514;2023-03-01T14:50:25;12.50;65.40
36424;DHT22;22458;45.328;9.514;2023-03-01T14:52:57;12.50;65.40
36424;DHT22;22458;45.328;9.514;2023-03-01T14:55:31;12.40;65.50
36424;DHT22;22458;45.328;9.514;2023-03-01T14:57:58;12.50;65.70
36424;DHT22;22458;45.328;9.514;2023-03-01T15:00:27;12.40;65.70
36424;DHT22;22458;45.328;9.514;2023-03-01T15:02:55;12.40;65.80
36424;DHT22;22458;45.328;9.514;2023-03-01T15:05:32;12.40;65.80
36424;DHT22;22458;45.328;9.514;2023-03-01T15:08:01;12.40;65.70
36424;DHT22;22458;45.328;9.514;2023-03-01T15:10:30;12.30;65.90
36424;DHT22;22458;45.328;9.514;2023-03-01T15:12:56;12.30;66.00
36424;DHT22;22458;45.328;9.514;2023-03-01T15:15:45;12.30;66.00
36424;DHT22;22458;45.328;9.514;2023-03-01T15:18:25;12.30;66.50
36424;DHT22;22458;45.328;9.514;2023-03-01T15:20:52;12.30;65.80
36424;DHT22;22458;45.328;9.514;2023-03-01T15:23:23;12.30;65.90
36424;DHT22;22458;45.328;9.514;2023-03-01T15:25:51;12.30;66.00
36424;DHT22;22458;45.328;9.514;2023-03-01T15:28:24;12.30;66.20
36424;DHT22;22458;45.328;9.514;2023-03-01T15:31:18;12.20;66.30
36424;DHT22;22458;45.328;9.514;2023-03-01T15:33:44;12.20;66.30
36424;DHT22;22458;45.328;9.514;2023-03-01T15:36:39;12.20;66.50
36424;DHT22;22458;45.328;9.514;2023-03-01T15:41:52;12.10;66.80
36424;DHT22;22458;45.328;9.514;2023-03-01T15:44:29;12.00;66.90
36424;DHT22;22458;45.328;9.514;2023-03-01T15:46:56;12.20;66.90
36424;DHT22;22458;45.328;9.514;2023-03-01T15:49:52;12.20;67.00
36424;DHT22;22458;45.328;9.514;2023-03-01T15:52:41;12.20;67.00
36424;DHT22;22458;45.328;9.514;2023-03-01T15:57:49;12.20;67.60
36424;DHT22;22458;45.328;9.514;2023-03-01T16:00:16;12.10;67.70
36424;DHT22;22458;45.328;9.514;2023-03-01T16:02:43;12.10;67.80
36424;DHT22;22458;45.328;9.514;2023-03-01T16:05:19;12.10;68.00
36424;DHT22;22458;45.328;9.514;2023-03-01T16:07:45;12.00;68.00
36424;DHT22;22458;45.328;9.514;2023-03-01T16:10:11;12.00;68.10
36424;DHT22;22458;45.328;9.514;2023-03-01T16:12:36;11.90;68.40
36424;DHT22;22458;45.328;9.514;2023-03-01T16:15:08;11.90;68.90
36424;DHT22;22458;45.328;9.514;2023-03-01T16:17:38;11.80;69.50
36424;DHT22;22458;45.328;9.514;2023-03-01T16:20:04;11.80;70.10
36424;DHT22;22458;45.328;9.514;2023-03-01T16:22:30;11.70;70.60
36424;DHT22;22458;45.328;9.514;2023-03-01T16:24:55;11.70;71.20
36424;DHT22;22458;45.328;9.514;2023-03-01T16:27:21;11.60;71.70
36424;DHT22;22458;45.328;9.514;2023-03-01T16:29:47;11.60;72.20
36424;DHT22;22458;45.328;9.514;2023-03-01T16:32:13;11.50;72.70
36424;DHT22;22458;45.328;9.514;2023-03-01T16:34:39;11.50;73.00
36424;DHT22;22458;45.328;9.514;2023-03-01T16:37:05;11.50;73.20
36424;DHT22;22458;45.328;9.514;2023-03-01T16:39:30;11.50;73.50
36424;DHT22;22458;45.328;9.514;2023-03-01T16:41:57;11.40;73.80
36424;DHT22;22458;45.328;9.514;2023-03-01T16:44:25;11.40;74.40
36424;DHT22;22458;45.328;9.514;2023-03-01T16:46:50;11.30;74.70
36424;DHT22;22458;45.328;9.514;2023-03-01T16:49:16;11.20;75.20
36424;DHT22;22458;45.328;9.514;2023-03-01T16:51:42;11.10;75.70
36424;DHT22;22458;45.328;9.514;2023-03-01T16:54:09;11.10;76.10
36424;DHT22;22458;45.328;9.514;2023-03-01T16:56:35;11.00;76.60
36424;DHT22;22458;45.328;9.514;2023-03-01T16:59:03;11.00;77.10
36424;DHT22;22458;45.328;9.514;2023-03-01T17:01:28;10.90;77.70
36424;DHT22;22458;45.328;9.514;2023-03-01T17:03:58;10.90;78.30
36424;DHT22;22458;45.328;9.514;2023-03-01T17:06:23;10.80;78.30
36424;DHT22;22458;45.328;9.514;2023-03-01T17:08:52;10.80;78.80
36424;DHT22;22458;45.328;9.514;2023-03-01T17:11:19;10.70;79.50
36424;DHT22;22458;45.328;9.514;2023-03-01T17:13:45;10.70;79.90
36424;DHT22;22458;45.328;9.514;2023-03-01T17:16:13;10.70;80.40
36424;DHT22;22458;45.328;9.514;2023-03-01T17:18:39;10.60;80.90
36424;DHT22;22458;45.328;9.514;2023-03-01T17:21:06;10.60;81.30
36424;DHT22;22458;45.328;9.514;2023-03-01T17:23:33;10.60;81.70
36424;DHT22;22458;45.328;9.514;2023-03-01T17:25:59;10.50;82.00
36424;DHT22;22458;45.328;9.514;2023-03-01T17:28:29;10.50;82.40
36424;DHT22;22458;45.328;9.514;2023-03-01T17:30:56;10.40;82.80
36424;DHT22;22458;45.328;9.514;2023-03-01T17:33:21;10.40;83.00
36424;DHT22;22458;45.328;9.514;2023-03-01T17:35:49;10.40;83.00
36424;DHT22;22458;45.328;9.514;2023-03-01T17:38:15;10.40;83.10